Time;durP1;ratioP1;P1;durP2;ratioP2;P2;SDS_P1;SDS_P2;PMS_P1;PMS_P2;Temp;Humidity;BMP_temperature;BMP_pressure;BME280_temperature;BME280_humidity;BME280_pressure;Samples;Min_cycle;Max_cycle;Signal;HPM_P1;HPM_P2
2023/02/22 00:00:52;;;;;;;0.10;0.10;;;9.60;99.90;;;;;;6146660;23;20006;-90
2023/02/22 00:03:27;;;;;;;0.00;0.00;;;9.40;99.90;;;;;;6147782;23;20501;-91
2023/02/22 00:06:01;;;;;;;0.00;0.00;;;9.40;99.90;;;;;;6148084;23;20006;-90
2023/02/22 00:08:29;;;;;;;0.00;0.00;;;9.50;99.90;;;;;;6148373;23;20513;-91
2023/02/22 00:10:55;;;;;;;0.00;0.00;;;9.50;99.90;;;;;;6146640;23;20016;-91
2023/02/22 00:13:21;;;;;;;0.00;0.00;;;9.50;99.90;;;;;;6148075;23;20018;-91
2023/02/22 00:15:47;;;;;;;0.00;0.00;;;9.40;99.90;;;;;;6147129;23;20430;-91
2023/02/22 00:18:15;;;;;;;0.00;0.00;;;9.50;99.90;;;;;;6147580;23;20006;-91
2023/02/22 00:20:41;;;;;;;0.00;0.00;;;;;;;;;;6148097;23;20013;-91
2023/02/22 00:23:12;;;;;;;0.00;0.00;;;9.40;99.90;;;;;;6122349;23;20010;-93
2023/02/22 00:25:38;;;;;;;0.00;0.00;;;9.40;99.90;;;;;;6148206;23;20105;-91
2023/02/22 00:28:03;;;;;;;0.10;0.10;;;9.50;99.90;;;;;;6148656;23;20041;-91
2023/02/22 00:30:30;;;;;;;0.00;0.00;;;9.50;99.90;;;;;;6147256;23;20017;-92
2023/02/22 00:32:57;;;;;;;0.10;0.10;;;9.50;99.90;;;;;;6148235;23;20088;-92
2023/02/22 00:35:25;;;;;;;0.00;0.00;;;9.60;99.90;;;;;;6148632;23;20029;-93
2023/02/22 00:37:53;;;;;;;0.00;0.00;;;9.60;99.90;;;;;;6147638;23;20025;-91
2023/02/22 00:40:23;;;;;;;0.00;0.00;;;9.60;99.90;;;;;;6146660;23;20038;-92
2023/02/22 00:42:49;;;;;;;0.00;0.00;;;9.60;99.90;;;;;;6148006;23;20339;-91
2023/02/22 00:45:17;;;;;;;0.00;0.00;;;9.60;99.90;;;;;;6124821;23;20010;-91
2023/02/22 00:47:43;;;;;;;0.00;0.00;;;;;;;;;;6147551;23;20328;-91
2023/02/22 00:50:09;;;;;;;0.08;0.08;;;9.70;99.90;;;;;;6123375;23;20097;-91
2023/02/22 00:52:35;;;;;;;0.00;0.00;;;;;;;;;;6146495;23;20010;-91
2023/02/22 00:55:01;;;;;;;0.10;0.10;;;;;;;;;;6119929;23;20355;-90
2023/02/22 00:57:27;;;;;;;0.00;0.00;;;;;;;;;;6121325;23;20010;-91
2023/02/22 00:59:53;;;;;;;0.00;0.00;;;;;;;;;;6121130;23;20092;-89
2023/02/22 01:02:19;;;;;;;0.00;0.00;;;9.60;99.90;;;;;;6122436;23;20001;-91
2023/02/22 01:04:45;;;;;;;0.00;0.00;;;;;;;;;;6147910;23;20080;-91
2023/02/22 01:07:11;;;;;;;0.00;0.00;;;;;;;;;;6121933;23;20502;-92
2023/02/22 01:09:38;;;;;;;0.00;0.00;;;9.70;99.90;;;;;;6125336;23;20002;-92
2023/02/22 01:12:04;;;;;;;0.00;0.00;;;9.70;99.90;;;;;;6147677;23;20081;-91
2023/02/22 01:14:30;;;;;;;0.00;0.00;;;;;;;;;;6124559;23;20513;-92
2023/02/22 01:16:56;;;;;;;0.00;0.00;;;9.80;99.90;;;;;;6125668;23;20030;-91
2023/02/22 01:19:22;;;;;;;0.00;0.00;;;;;;;;;;6148328;23;20018;-92
2023/02/22 01:21:48;;;;;;;0.08;0.08;;;9.70;99.90;;;;;;6123304;23;20006;-91
2023/02/22 01:24:16;;;;;;;0.08;0.08;;;9.60;99.90;;;;;;6146897;23;20006;-91
2023/02/22 01:26:44;;;;;;;0.00;0.00;;;9.70;99.90;;;;;;6146003;23;20034;-90
2023/02/22 01:29:14;;;;;;;0.00;0.00;;;9.70;99.90;;;;;;6146041;23;20010;-90
2023/02/22 01:31:40;;;;;;;0.00;0.00;;;;;;;;;;6145781;23;20583;-91
2023/02/22 01:34:05;;;;;;;0.00;0.00;;;9.70;99.90;;;;;;6123186;23;20082;-91
2023/02/22 01:36:31;;;;;;;0.00;0.00;;;;;;;;;;6148148;23;20002;-91
2023/02/22 01:38:56;;;;;;;0.00;0.00;;;9.80;99.90;;;;;;6121789;23;20010;-91
2023/02/22 01:41:22;;;;;;;0.10;0.10;;;;;;;;;;6146615;23;19994;-91
2023/02/22 01:43:48;;;;;;;0.10;0.10;;;9.70;99.90;;;;;;6123159;23;20001;-91
2023/02/22 01:46:21;;;;;;;0.00;0.00;;;9.60;99.90;;;;;;6146965;23;20009;-91
2023/02/22 01:48:52;;;;;;;0.00;0.00;;;9.60;99.90;;;;;;6147525;23;20013;-91
2023/02/22 01:51:40;;;;;;;0.00;0.00;;;9.50;99.90;;;;;;6122508;23;20013;-91
2023/02/22 01:54:17;;;;;;;0.00;0.00;;;9.50;99.90;;;;;;6146830;23;20002;-91
2023/02/22 01:57:11;;;;;;;0.00;0.00;;;9.60;99.90;;;;;;6147819;23;20325;-91
2023/02/22 01:59:41;;;;;;;0.00;0.00;;;9.40;99.90;;;;;;6146719;23;20090;-91
2023/02/22 02:02:07;;;;;;;0.10;0.10;;;;;;;;;;6141226;23;20002;-91
2023/02/22 02:04:34;;;;;;;0.00;0.00;;;9.30;99.90;;;;;;6122515;23;20002;-91
2023/02/22 02:07:02;;;;;;;0.00;0.00;;;9.40;99.90;;;;;;6147359;23;20010;-91
2023/02/22 02:09:56;;;;;;;0.00;0.00;;;9.30;99.90;;;;;;6147163;23;20002;-91
2023/02/22 02:12:22;;;;;;;0.00;0.00;;;;;;;;;;6147571;23;20077;-91
2023/02/22 02:14:49;;;;;;;0.00;0.00;;;;;;;;;;6123491;23;20073;-91
2023/02/22 02:17:18;;;;;;;0.00;0.00;;;9.30;99.90;;;;;;6121644;23;20016;-91
2023/02/22 02:20:20;;;;;;;0.00;0.00;;;9.10;99.90;;;;;;6146367;23;20001;-91
2023/02/22 02:23:24;;;;;;;0.00;0.00;;;9.40;99.90;;;;;;6146457;23;20013;-91
2023/02/22 02:26:24;;;;;;;0.00;0.00;;;9.30;99.90;;;;;;6146088;23;20010;-91
2023/02/22 02:28:58;;;;;;;0.08;0.08;;;9.30;99.90;;;;;;6146812;23;20486;-92
2023/02/22 02:31:41;;;;;;;0.00;0.00;;;9.10;99.90;;;;;;6118097;23;20140;-91
2023/02/22 02:34:30;;;;;;;0.00;0.00;;;8.90;99.90;;;;;;6147081;23;20010;-91
2023/02/22 02:37:06;;;;;;;0.00;0.00;;;8.80;99.90;;;;;;6122571;23;20006;-91
2023/02/22 03:28:45;;;;;;;0.10;0.10;;;7.50;99.90;;;;;;6147309;23;20022;-93
2023/02/22 03:31:20;;;;;;;0.10;0.10;;;7.40;99.90;;;;;;6172024;23;20006;-93
2023/02/22 03:34:03;;;;;;;0.10;0.10;;;7.40;99.90;;;;;;6169864;23;20018;-93
2023/02/22 03:36:37;;;;;;;0.10;0.10;;;7.30;99.90;;;;;;6171511;23;20053;-93
2023/02/22 03:39:06;;;;;;;0.10;0.10;;;7.20;99.90;;;;;;6170914;23;20002;-91
2023/02/22 03:41:37;;;;;;;0.10;0.10;;;7.20;99.90;;;;;;6169928;23;20002;-92
2023/02/22 03:44:10;;;;;;;0.10;0.10;;;7.20;99.90;;;;;;6169370;23;20009;-93
2023/02/22 03:46:39;;;;;;;0.10;0.10;;;7.20;99.90;;;;;;6169850;23;20012;-92
2023/02/22 03:49:15;;;;;;;0.10;0.10;;;7.20;99.90;;;;;;6170394;23;20069;-92
2023/02/22 03:51:41;;;;;;;0.10;0.10;;;;;;;;;;6170199;23;20010;-93
2023/02/22 03:54:08;;;;;;;0.10;0.10;;;;;;;;;;6169888;23;20021;-92
2023/02/22 03:56:46;;;;;;;0.10;0.10;;;7.00;99.90;;;;;;6170023;23;20002;-93
2023/02/22 03:59:12;;;;;;;0.10;0.10;;;;;;;;;;6169113;23;20009;-92
2023/02/22 04:01:38;;;;;;;0.10;0.10;;;;;;;;;;6170744;23;20002;-92
2023/02/22 04:04:04;;;;;;;0.10;0.10;;;;;;;;;;6172024;23;20072;-91
2023/02/22 04:06:30;;;;;;;0.10;0.10;;;;;;;;;;6173304;23;20014;-92
2023/02/22 04:08:56;;;;;;;0.03;0.03;;;;;;;;;;6172234;23;20041;-91
2023/02/22 04:11:22;;;;;;;0.10;0.10;;;;;;;;;;6171408;23;20006;-92
2023/02/22 04:13:48;;;;;;;0.10;0.10;;;;;;;;;;6169890;23;20066;-92
2023/02/22 04:16:14;;;;;;;0.10;0.10;;;;;;;;;;6170817;23;20033;-92
2023/02/22 04:18:40;;;;;;;0.10;0.10;;;;;;;;;;6171068;23;20005;-93
2023/02/22 04:21:07;;;;;;;0.10;0.10;;;;;;;;;;6165876;23;20006;-92
2023/02/22 04:23:33;;;;;;;0.10;0.10;;;;;;;;;;6170874;23;20083;-93
2023/02/22 04:25:59;;;;;;;0.10;0.10;;;;;;;;;;6168859;23;20013;-93
2023/02/22 04:28:25;;;;;;;0.10;0.10;;;;;;;;;;6169615;23;20013;-92
2023/02/22 04:30:51;;;;;;;0.10;0.10;;;;;;;;;;6170449;23;20010;-92
2023/02/22 04:33:17;;;;;;;0.10;0.10;;;;;;;;;;6170689;23;20030;-93
2023/02/22 04:35:43;;;;;;;0.10;0.10;;;;;;;;;;6170380;23;20002;-91
2023/02/22 04:38:10;;;;;;;0.10;0.10;;;;;;;;;;6169628;23;20005;-92
2023/02/22 04:40:36;;;;;;;0.10;0.10;;;;;;;;;;6169721;23;20065;-92
2023/02/22 04:43:02;;;;;;;0.10;0.10;;;;;;;;;;6170965;23;20017;-93
2023/02/22 04:45:28;;;;;;;0.10;0.10;;;;;;;;;;6170798;23;20129;-92
2023/02/22 04:47:53;;;;;;;0.10;0.10;;;;;;;;;;6170214;23;20010;-92
2023/02/22 04:50:19;;;;;;;0.10;0.10;;;6.30;99.90;;;;;;6169645;23;20032;-92
2023/02/22 04:52:46;;;;;;;0.10;0.10;;;;;;;;;;6171845;23;20053;-92
2023/02/22 04:55:21;;;;;;;0.10;0.10;;;;;;;;;;6121572;23;20069;-93
2023/02/22 05:00:53;;;;;;;0.10;0.10;;;;;;;;;;6145834;23;20017;-91
2023/02/22 05:15:20;;;;;;;0.10;0.10;;;6.00;99.90;;;;;;6132910;23;20026;-92
2023/02/22 05:18:06;;;;;;;0.10;0.10;;;5.90;99.90;;;;;;6147400;23;20006;-91
2023/02/22 05:20:57;;;;;;;0.10;0.10;;;5.90;99.90;;;;;;6147239;23;20029;-92
2023/02/22 05:23:26;;;;;;;0.10;0.10;;;5.80;99.90;;;;;;6147635;23;20006;-91
2023/02/22 05:25:52;;;;;;;0.05;0.05;;;;;;;;;;6147338;23;20009;-91
2023/02/22 05:28:18;;;;;;;0.10;0.10;;;;;;;;;;6147606;23;20010;-91
2023/02/22 05:31:09;;;;;;;0.10;0.10;;;5.70;99.90;;;;;;6146109;23;20010;-92
2023/02/22 05:34:18;;;;;;;0.10;0.10;;;5.80;99.90;;;;;;6145958;23;20005;-90
2023/02/22 05:37:06;;;;;;;0.10;0.10;;;5.70;99.90;;;;;;6146917;23;20013;-91
2023/02/22 05:40:01;;;;;;;0.10;0.10;;;5.50;99.90;;;;;;6121593;23;20006;-92
2023/02/22 05:42:27;;;;;;;0.10;0.10;;;;;;;;;;6170856;23;20010;-91
2023/02/22 05:44:54;;;;;;;0.10;0.10;;;;;;;;;;6146346;23;20010;-91
2023/02/22 05:47:57;;;;;;;0.10;0.10;;;5.50;99.90;;;;;;6146915;23;19994;-91
2023/02/22 05:50:46;;;;;;;0.10;0.10;;;;;;;;;;6146200;23;20030;-91
2023/02/22 05:53:12;;;;;;;0.10;0.10;;;;;;;;;;6147068;23;20034;-93
2023/02/22 05:56:00;;;;;;;0.10;0.10;;;5.70;99.90;;;;;;6148257;23;20033;-90
2023/02/22 11:01:34;;;;;;;0.00;0.00;;;13.60;99.90;;;;;;6182181;23;20110;-92
2023/02/22 11:03:59;;;;;;;0.00;0.00;;;;;;;;;;6208497;23;20155;-92
2023/02/22 11:06:26;;;;;;;0.00;0.00;;;;;;;;;;6208247;23;20037;-92
2023/02/22 11:09:11;;;;;;;0.00;0.00;;;13.60;99.90;;;;;;6207783;23;19992;-92
2023/02/22 11:11:38;;;;;;;0.00;0.00;;;13.60;99.90;;;;;;6182651;23;20009;-92
2023/02/22 11:14:05;;;;;;;0.00;0.00;;;;;;;;;;6183081;23;20001;-91
2023/02/22 11:16:51;;;;;;;0.00;0.00;;;13.60;99.90;;;;;;6183193;23;20013;-90
2023/02/22 11:19:23;;;;;;;0.00;0.00;;;13.70;99.90;;;;;;6182481;23;20037;-91
2023/02/22 11:22:10;;;;;;;0.00;0.00;;;13.60;99.90;;;;;;6183644;23;20017;-91
2023/02/22 11:24:53;;;;;;;0.00;0.00;;;13.60;99.90;;;;;;6183103;23;19996;-93
2023/02/22 11:27:42;;;;;;;0.00;0.00;;;13.60;99.90;;;;;;6183181;23;19997;-91
2023/02/22 11:30:23;;;;;;;0.00;0.00;;;13.60;99.90;;;;;;6183222;23;19997;-92
2023/02/22 11:32:55;;;;;;;0.00;0.00;;;13.70;99.90;;;;;;6182991;23;20017;-92
2023/02/22 11:35:27;;;;;;;0.00;0.00;;;13.80;99.90;;;;;;6181840;23;20002;-92
2023/02/22 11:37:53;;;;;;;0.00;0.00;;;;;;;;;;6183143;23;19989;-91
2023/02/22 11:40:21;;;;;;;0.00;0.00;;;14.00;99.90;;;;;;6182759;23;19989;-90
2023/02/22 11:42:49;;;;;;;0.00;0.00;;;14.10;99.90;;;;;;6182398;23;19990;-92
2023/02/22 11:45:22;;;;;;;0.00;0.00;;;14.20;99.90;;;;;;6182431;23;20013;-92
2023/02/22 11:47:54;;;;;;;0.00;0.00;;;14.30;99.90;;;;;;6179307;23;20002;-91
2023/02/22 11:50:42;;;;;;;0.00;0.00;;;14.30;99.90;;;;;;6180576;23;19998;-90
2023/02/22 11:53:32;;;;;;;0.00;0.00;;;14.50;99.90;;;;;;6181415;23;19996;-91
2023/02/22 11:56:20;;;;;;;0.00;0.00;;;14.60;99.90;;;;;;6179509;23;20257;-92
2023/02/22 11:58:46;;;;;;;0.00;0.00;;;;;;;;;;6182793;23;20013;-92
2023/02/22 12:01:30;;;;;;;0.00;0.00;;;14.90;99.90;;;;;;6181932;23;20005;-92
2023/02/22 12:04:14;;;;;;;0.00;0.00;;;14.80;99.90;;;;;;6181282;23;20005;-91
2023/02/22 12:07:28;;;;;;;0.00;0.00;;;14.90;99.90;;;;;;6181847;23;20040;-91
2023/02/22 12:10:04;;;;;;;0.00;0.00;;;15.00;99.90;;;;;;6181541;23;19997;-92
2023/02/22 12:13:08;;;;;;;0.00;0.00;;;15.00;99.90;;;;;;6181713;23;20006;-93
2023/02/22 12:16:12;;;;;;;0.00;0.00;;;15.10;99.90;;;;;;6181704;23;20021;-92
2023/02/22 12:18:38;;;;;;;0.00;0.00;;;;;;;;;;6182959;23;19993;-91
2023/02/22 12:21:12;;;;;;;0.00;0.00;;;15.30;99.90;;;;;;6181627;23;19997;-91
2023/02/22 12:23:53;;;;;;;0.00;0.00;;;15.30;99.90;;;;;;6182216;23;20069;-93
2023/02/22 12:26:24;;;;;;;0.00;0.00;;;15.30;99.90;;;;;;6182928;23;20009;-92
2023/02/22 12:28:50;;;;;;;0.00;0.00;;;;;;;;;;6182631;23;20005;-92
2023/02/22 12:31:37;;;;;;;0.00;0.00;;;15.50;99.90;;;;;;6180478;23;20014;-92
2023/02/22 12:34:18;;;;;;;0.00;0.00;;;15.50;99.90;;;;;;6181523;23;20009;-92
2023/02/22 12:36:54;;;;;;;0.00;0.00;;;15.40;99.90;;;;;;6181537;23;19993;-91
2023/02/22 12:39:54;;;;;;;0.00;0.00;;;15.50;99.90;;;;;;6180827;23;20006;-91
2023/02/22 12:42:42;;;;;;;0.00;0.00;;;15.60;99.90;;;;;;6182535;23;20020;-91
2023/02/22 12:45:15;;;;;;;0.00;0.00;;;15.60;99.90;;;;;;6182388;23;19989;-91
2023/02/22 12:48:02;;;;;;;0.00;0.00;;;15.70;99.90;;;;;;6182225;23;20017;-89
2023/02/22 12:50:33;;;;;;;0.00;0.00;;;15.60;99.90;;;;;;6182515;23;20009;-91
2023/02/22 12:53:14;;;;;;;0.00;0.00;;;15.70;99.90;;;;;;6181733;23;20028;-93
2023/02/22 12:56:11;;;;;;;0.00;0.00;;;15.80;99.90;;;;;;6182174;23;20029;-92
2023/02/22 12:59:11;;;;;;;0.00;0.00;;;15.80;99.90;;;;;;6162711;23;20017;-92
2023/02/22 13:01:44;;;;;;;0.00;0.00;;;15.80;99.90;;;;;;6176148;23;20020;-91
2023/02/22 13:04:10;;;;;;;0.00;0.00;;;15.90;99.90;;;;;;6178917;23;20005;-91
2023/02/22 13:07:00;;;;;;;0.00;0.00;;;15.90;99.90;;;;;;6180930;23;20009;-91
2023/02/22 13:09:26;;;;;;;0.00;0.00;;;;;;;;;;6180711;23;19990;-89
2023/02/22 13:12:23;;;;;;;0.00;0.00;;;15.90;99.90;;;;;;6182053;23;20029;-91
2023/02/22 13:15:01;;;;;;;0.00;0.00;;;15.90;99.90;;;;;;6181685;23;19997;-91
2023/02/22 13:17:27;;;;;;;0.00;0.00;;;;;;;;;;6180814;23;20164;-90
2023/02/22 13:19:52;;;;;;;0.00;0.00;;;;;;;;;;6181354;23;19990;-91
2023/02/22 13:22:29;;;;;;;0.00;0.00;;;15.70;99.90;;;;;;6181950;23;20084;-92
2023/02/22 13:25:03;;;;;;;0.00;0.00;;;15.70;99.90;;;;;;6180667;23;20041;-91
2023/02/22 13:27:37;;;;;;;0.00;0.00;;;15.70;99.90;;;;;;6180955;23;19990;-90
2023/02/22 13:30:04;;;;;;;0.00;0.00;;;15.70;99.90;;;;;;6181677;23;20010;-91
2023/02/22 13:32:46;;;;;;;0.00;0.00;;;15.50;99.90;;;;;;6180378;23;20009;-91
2023/02/22 13:35:36;;;;;;;0.00;0.00;;;15.40;99.90;;;;;;6180426;23;19990;-91
2023/02/22 13:38:24;;;;;;;0.00;0.00;;;15.30;99.90;;;;;;6181271;23;19997;-90
2023/02/22 13:53:53;;;;;;;0.00;0.00;;;15.20;99.90;;;;;;6118654;23;20036;-90
2023/02/22 14:20:13;;;;;;;0.00;0.00;;;14.80;99.90;;;;;;6151152;23;20020;-91
2023/02/22 14:22:42;;;;;;;0.00;0.00;;;14.80;99.90;;;;;;6152183;23;20013;-92
2023/02/22 14:25:35;;;;;;;0.00;0.00;;;14.80;99.90;;;;;;6152573;23;19990;-91
2023/02/22 14:28:04;;;;;;;0.00;0.00;;;14.80;99.90;;;;;;6150948;23;20006;-91
2023/02/22 14:30:33;;;;;;;0.00;0.00;;;14.80;99.90;;;;;;6151344;23;20074;-90
2023/02/22 14:33:02;;;;;;;0.00;0.00;;;14.80;99.90;;;;;;6153591;23;20002;-92
2023/02/22 14:35:44;;;;;;;0.00;0.00;;;14.80;99.90;;;;;;6153739;23;20001;-92
2023/02/22 19:19:56;;;;;;;0.00;0.00;;;;;;;;;;6152821;23;20030;-90
2023/02/22 19:22:24;;;;;;;0.00;0.00;;;;;;;;;;6176358;23;20021;-90
2023/02/22 19:24:52;;;;;;;0.00;0.00;;;10.20;99.90;;;;;;6175223;23;20025;-89
2023/02/22 19:35:05;;;;;;;0.00;0.00;;;;;;;;;;6152309;23;20012;-91
2023/02/22 19:37:32;;;;;;;0.00;0.00;;;10.10;99.90;;;;;;6174446;23;19997;-92
2023/02/22 19:39:59;;;;;;;0.00;0.00;;;;;;;;;;6152355;23;20013;-94
2023/02/22 19:42:25;;;;;;;0.00;0.00;;;;;;;;;;6151741;23;20010;-91
2023/02/22 19:44:52;;;;;;;0.00;0.00;;;;;;;;;;6151365;23;20062;-90
2023/02/22 19:47:23;;;;;;;0.00;0.00;;;10.10;99.90;;;;;;6152512;23;20022;-92
2023/02/22 19:50:20;;;;;;;0.00;0.00;;;10.20;99.90;;;;;;6151031;23;20002;-93
2023/02/22 20:21:23;;;;;;;0.00;0.00;;;10.00;99.90;;;;;;6150339;23;20022;-93
2023/02/22 20:24:26;;;;;;;0.00;0.00;;;10.00;99.90;;;;;;6151558;23;19998;-94
2023/02/22 20:27:11;;;;;;;0.10;0.10;;;9.90;99.90;;;;;;6150639;23;20055;-92
2023/02/22 20:29:37;;;;;;;0.00;0.00;;;;;;;;;;6169661;23;20010;-94
2023/02/22 20:32:16;;;;;;;0.00;0.00;;;9.80;99.90;;;;;;6121645;23;20006;-91
2023/02/22 20:34:46;;;;;;;0.00;0.00;;;9.80;99.90;;;;;;6121794;23;20030;-92
2023/02/22 20:37:13;;;;;;;0.10;0.10;;;;;;;;;;6121953;23;20081;-92
2023/02/22 20:39:41;;;;;;;0.00;0.00;;;;;;;;;;6122206;23;20002;-92
2023/02/22 20:42:16;;;;;;;0.00;0.00;;;9.70;99.90;;;;;;6121127;23;19986;-91
2023/02/22 20:44:44;;;;;;;0.00;0.00;;;9.70;99.90;;;;;;6122621;23;19995;-92
2023/02/22 20:47:19;;;;;;;0.00;0.00;;;;;;;;;;6122058;23;20055;-91
2023/02/22 20:49:45;;;;;;;0.00;0.00;;;;;;;;;;6120090;23;19995;-89
2023/02/22 20:52:11;;;;;;;0.00;0.00;;;;;;;;;;6118063;23;19986;-90
2023/02/22 20:54:37;;;;;;;0.00;0.00;;;;;;;;;;6117201;23;20005;-91
2023/02/22 20:57:06;;;;;;;0.00;0.00;;;9.70;99.90;;;;;;6120686;23;20010;-91
2023/02/22 20:59:33;;;;;;;0.10;0.10;;;;;;;;;;6119785;23;20014;-92
2023/02/22 21:02:09;;;;;;;0.00;0.00;;;9.60;99.90;;;;;;6118509;23;19991;-91
2023/02/22 21:05:02;;;;;;;0.05;0.05;;;9.70;99.90;;;;;;6120776;23;19991;-92
2023/02/22 21:07:28;;;;;;;0.00;0.00;;;;;;;;;;6115395;23;20010;-91
2023/02/22 21:10:04;;;;;;;0.10;0.10;;;;;;;;;;6120597;23;20013;-92
2023/02/22 21:12:48;;;;;;;;;;;;;;;;;;;;;
2023/02/22 21:15:17;;;;;;;0.00;0.00;;;;;;;;;;6119915;23;19990;-92
2023/02/22 21:17:58;;;;;;;0.00;0.00;;;9.60;99.90;;;;;;6119800;23;19990;-91
2023/02/22 21:20:26;;;;;;;0.00;0.00;;;;;;;;;;6120918;23;19997;-92
2023/02/22 21:23:08;;;;;;;0.10;0.10;;;9.50;99.90;;;;;;6121401;23;20010;-93
2023/02/22 21:25:57;;;;;;;0.10;0.10;;;9.50;99.90;;;;;;6119671;23;20002;-92
2023/02/22 21:28:25;;;;;;;0.00;0.00;;;;;;;;;;6121180;23;20034;-90
2023/02/22 21:30:51;;;;;;;0.00;0.00;;;;;;;;;;6120439;23;20006;-92
2023/02/22 21:33:17;;;;;;;0.00;0.00;;;;;;;;;;6120903;23;20010;-91
2023/02/22 21:35:46;;;;;;;0.10;0.10;;;;;;;;;;6120888;23;19999;-92
2023/02/22 21:38:19;;;;;;;0.00;0.00;;;9.70;99.90;;;;;;6120747;23;19991;-92
2023/02/22 21:40:54;;;;;;;0.10;0.10;;;9.60;99.90;;;;;;6120955;23;20022;-91
2023/02/22 21:43:27;;;;;;;0.00;0.00;;;;;;;;;;6119952;23;20006;-91
2023/02/22 21:48:59;;;;;;;0.00;0.00;;;9.60;99.90;;;;;;6108049;23;20170;-92
2023/02/22 21:51:42;;;;;;;0.10;0.10;;;9.60;99.90;;;;;;6120243;23;19990;-92
2023/02/22 21:54:21;;;;;;;0.00;0.00;;;9.50;99.90;;;;;;6121866;23;20006;-91
2023/02/22 21:56:58;;;;;;;0.10;0.10;;;9.50;99.90;;;;;;6121236;23;20045;-90
2023/02/22 22:02:48;;;;;;;0.00;0.00;;;9.50;99.90;;;;;;6117201;23;20082;-92
2023/02/22 22:05:33;;;;;;;0.10;0.10;;;9.40;99.90;;;;;;6119465;23;20007;-91
2023/02/22 22:08:06;;;;;;;0.00;0.00;;;9.30;99.90;;;;;;6120837;23;20012;-89
2023/02/22 22:10:38;;;;;;;0.00;0.00;;;;;;;;;;6120328;23;20002;-93
2023/02/22 22:13:07;;;;;;;0.00;0.00;;;;;;;;;;6119204;23;20006;-92
2023/02/22 22:15:36;;;;;;;0.10;0.10;;;;;;;;;;6120438;23;19999;-93
2023/02/22 22:18:10;;;;;;;0.08;0.08;;;9.20;99.90;;;;;;6120378;23;20082;-91
2023/02/22 22:20:45;;;;;;;0.10;0.10;;;;;;;;;;6119927;23;20018;-92
2023/02/22 22:23:14;;;;;;;0.00;0.00;;;;;;;;;;6120183;23;19990;-91
2023/02/22 22:26:12;;;;;;;0.10;0.10;;;9.10;99.90;;;;;;6120061;23;20014;-93
2023/02/22 22:28:48;;;;;;;0.10;0.10;;;9.10;99.90;;;;;;6106077;23;20006;-93
2023/02/22 22:31:16;;;;;;;0.10;0.10;;;9.00;99.90;;;;;;6119021;23;20003;-92
2023/02/22 22:33:55;;;;;;;0.10;0.10;;;9.10;99.90;;;;;;6119536;23;20014;-92
2023/02/22 22:36:27;;;;;;;0.00;0.00;;;9.10;99.90;;;;;;6119948;23;19998;-91
2023/02/22 22:39:19;;;;;;;0.10;0.10;;;9.10;99.90;;;;;;6120337;23;20042;-93
2023/02/22 22:41:48;;;;;;;0.10;0.10;;;;;;;;;;6120325;23;19994;-92
2023/02/22 22:44:15;;;;;;;0.00;0.00;;;;;;;;;;6119383;23;20098;-92
2023/02/22 22:46:42;;;;;;;0.00;0.00;;;9.10;99.90;;;;;;6120069;23;20034;-91
2023/02/22 22:49:10;;;;;;;0.10;0.10;;;9.00;99.90;;;;;;6119540;23;20010;-92
2023/02/22 22:51:36;;;;;;;0.10;0.10;;;;;;;;;;6120282;23;20066;-93
2023/02/22 22:54:04;;;;;;;0.10;0.10;;;8.90;99.90;;;;;;6119286;23;20006;-92
2023/02/22 22:56:34;;;;;;;0.08;0.08;;;;;;;;;;6120965;23;20085;-91
2023/02/22 22:58:59;;;;;;;0.10;0.10;;;;;;;;;;6121763;23;20054;-92
2023/02/22 23:01:32;;;;;;;0.00;0.00;;;8.80;99.90;;;;;;6122464;23;20014;-91
2023/02/22 23:04:10;;;;;;;0.10;0.10;;;8.80;99.90;;;;;;6119297;23;20002;-92
2023/02/22 23:07:05;;;;;;;0.00;0.00;;;8.80;99.90;;;;;;6121946;23;19994;-91
2023/02/22 23:09:38;;;;;;;0.10;0.10;;;8.80;99.90;;;;;;6121658;23;19990;-92
2023/02/22 23:12:08;;;;;;;0.10;0.10;;;;;;;;;;6120748;23;19999;-90
2023/02/22 23:15:03;;;;;;;0.10;0.10;;;8.70;99.90;;;;;;6121841;23;20018;-92
2023/02/22 23:17:41;;;;;;;0.10;0.10;;;8.70;99.90;;;;;;6119640;23;19990;-93
2023/02/22 23:20:10;;;;;;;0.00;0.00;;;8.60;99.90;;;;;;6121984;23;20006;-91
2023/02/22 23:22:52;;;;;;;0.10;0.10;;;8.70;99.90;;;;;;6122768;23;20006;-93
2023/02/22 23:28:51;;;;;;;0.00;0.00;;;8.70;99.90;;;;;;6119750;23;20139;-92
2023/02/22 23:31:28;;;;;;;0.10;0.10;;;8.70;99.90;;;;;;6120045;23;19993;-92
2023/02/22 23:34:09;;;;;;;0.00;0.00;;;8.70;99.90;;;;;;6118867;23;19998;-92
2023/02/22 23:39:53;;;;;;;0.10;0.10;;;8.80;99.90;;;;;;6121022;23;19999;-90
2023/02/22 23:43:02;;;;;;;0.10;0.10;;;8.70;99.90;;;;;;6122229;23;19998;-94
2023/02/22 23:45:37;;;;;;;0.10;0.10;;;;;;;;;;6121795;23;20005;-92
2023/02/22 23:48:06;;;;;;;0.10;0.10;;;;;;;;;;6121431;23;19990;-93
2023/02/22 23:50:35;;;;;;;0.00;0.00;;;8.70;99.90;;;;;;6121040;23;20013;-92
2023/02/22 23:53:24;;;;;;;0.10;0.10;;;8.80;99.90;;;;;;6122633;23;19998;-93
2023/02/22 23:55:51;;;;;;;0.10;0.10;;;;;;;;;;6122417;23;20018;-92
2023/02/22 23:58:21;;;;;;;0.10;0.10;;;;;;;;;;6121962;23;20058;-91
